sensor_id;sensor_type;location;lat;lon;timestamp;P1;durP1;ratioP1;P2;durP2;ratioP2
17365;SDS011;8800;50.118;9.900;2023-05-07T00:00:08;3.67;;;1.88;;
17365;SDS011;8800;50.118;9.900;2023-05-07T00:02:36;3.58;;;1.90;;
17365;SDS011;8800;50.118;9.900;2023-05-07T00:05:03;4.43;;;1.92;;
17365;SDS011;8800;50.118;9.900;2023-05-07T00:07:30;3.53;;;2.00;;
17365;SDS011;8800;50.118;9.900;2023-05-07T00:09:56;2.38;;;1.77;;
17365;SDS011;8800;50.118;9.900;2023-05-07T00:12:23;2.58;;;1.85;;
17365;SDS011;8800;50.118;9.900;2023-05-07T00:14:49;3.00;;;1.83;;
17365;SDS011;8800;50.118;9.900;2023-05-07T00:17:17;2.55;;;1.83;;
17365;SDS011;8800;50.118;9.900;2023-05-07T00:19:43;3.03;;;1.80;;
17365;SDS011;8800;50.118;9.900;2023-05-07T00:22:10;4.47;;;2.00;;
17365;SDS011;8800;50.118;9.900;2023-05-07T00:24:36;4.43;;;2.20;;
17365;SDS011;8800;50.118;9.900;2023-05-07T00:27:03;3.08;;;2.00;;
17365;SDS011;8800;50.118;9.900;2023-05-07T00:29:30;3.47;;;2.13;;
17365;SDS011;8800;50.118;9.900;2023-05-07T00:31:56;3.67;;;2.17;;
17365;SDS011;8800;50.118;9.900;2023-05-07T00:34:24;2.78;;;2.03;;
17365;SDS011;8800;50.118;9.900;2023-05-07T00:36:50;2.35;;;1.95;;
17365;SDS011;8800;50.118;9.900;2023-05-07T00:39:17;4.90;;;2.40;;
17365;SDS011;8800;50.118;9.900;2023-05-07T00:41:43;2.30;;;1.92;;
17365;SDS011;8800;50.118;9.900;2023-05-07T00:44:10;4.20;;;2.08;;
17365;SDS011;8800;50.118;9.900;2023-05-07T00:46:36;3.35;;;1.90;;
17365;SDS011;8800;50.118;9.900;2023-05-07T00:49:03;4.45;;;2.42;;
17365;SDS011;8800;50.118;9.900;2023-05-07T00:51:31;4.60;;;2.15;;
17365;SDS011;8800;50.118;9.900;2023-05-07T00:53:59;4.90;;;2.40;;
17365;SDS011;8800;50.118;9.900;2023-05-07T00:56:26;4.43;;;2.60;;
17365;SDS011;8800;50.118;9.900;2023-05-07T00:58:53;3.33;;;1.98;;
17365;SDS011;8800;50.118;9.900;2023-05-07T01:01:19;2.90;;;2.25;;
17365;SDS011;8800;50.118;9.900;2023-05-07T01:03:46;4.18;;;2.30;;
17365;SDS011;8800;50.118;9.900;2023-05-07T01:06:12;4.65;;;2.40;;
17365;SDS011;8800;50.118;9.900;2023-05-07T01:08:43;3.20;;;2.35;;
17365;SDS011;8800;50.118;9.900;2023-05-07T01:11:09;2.53;;;2.15;;
17365;SDS011;8800;50.118;9.900;2023-05-07T01:13:36;3.22;;;2.05;;
17365;SDS011;8800;50.118;9.900;2023-05-07T01:16:03;3.78;;;2.40;;
17365;SDS011;8800;50.118;9.900;2023-05-07T01:18:30;4.03;;;2.60;;
17365;SDS011;8800;50.118;9.900;2023-05-07T01:20:57;4.05;;;2.78;;
17365;SDS011;8800;50.118;9.900;2023-05-07T01:23:26;4.50;;;2.85;;
17365;SDS011;8800;50.118;9.900;2023-05-07T01:25:53;4.35;;;2.47;;
17365;SDS011;8800;50.118;9.900;2023-05-07T01:28:20;3.03;;;2.70;;
17365;SDS011;8800;50.118;9.900;2023-05-07T01:30:48;4.43;;;2.60;;
17365;SDS011;8800;50.118;9.900;2023-05-07T01:33:15;5.40;;;2.55;;
17365;SDS011;8800;50.118;9.900;2023-05-07T01:35:45;6.03;;;2.75;;
17365;SDS011;8800;50.118;9.900;2023-05-07T01:38:12;3.17;;;2.70;;
17365;SDS011;8800;50.118;9.900;2023-05-07T01:40:40;2.65;;;2.42;;
17365;SDS011;8800;50.118;9.900;2023-05-07T01:43:07;5.00;;;3.00;;
17365;SDS011;8800;50.118;9.900;2023-05-07T01:45:34;3.25;;;2.40;;
17365;SDS011;8800;50.118;9.900;2023-05-07T01:48:01;3.38;;;2.45;;
17365;SDS011;8800;50.118;9.900;2023-05-07T01:50:28;8.38;;;2.80;;
17365;SDS011;8800;50.118;9.900;2023-05-07T01:52:54;4.75;;;2.72;;
17365;SDS011;8800;50.118;9.900;2023-05-07T01:55:21;6.05;;;2.70;;
17365;SDS011;8800;50.118;9.900;2023-05-07T01:57:49;4.32;;;3.13;;
17365;SDS011;8800;50.118;9.900;2023-05-07T02:00:15;3.90;;;3.00;;
17365;SDS011;8800;50.118;9.900;2023-05-07T02:02:42;5.47;;;3.30;;
17365;SDS011;8800;50.118;9.900;2023-05-07T02:05:09;4.68;;;3.03;;
17365;SDS011;8800;50.118;9.900;2023-05-07T02:07:35;6.32;;;3.50;;
17365;SDS011;8800;50.118;9.900;2023-05-07T02:10:02;5.45;;;3.50;;
17365;SDS011;8800;50.118;9.900;2023-05-07T02:12:29;5.38;;;3.80;;
17365;SDS011;8800;50.118;9.900;2023-05-07T02:14:56;4.97;;;3.55;;
17365;SDS011;8800;50.118;9.900;2023-05-07T02:17:23;4.40;;;3.42;;
17365;SDS011;8800;50.118;9.900;2023-05-07T02:19:50;5.90;;;3.85;;
17365;SDS011;8800;50.118;9.900;2023-05-07T02:22:17;3.90;;;3.50;;
17365;SDS011;8800;50.118;9.900;2023-05-07T02:24:44;7.18;;;4.20;;
17365;SDS011;8800;50.118;9.900;2023-05-07T02:27:10;5.35;;;3.53;;
17365;SDS011;8800;50.118;9.900;2023-05-07T02:29:37;6.35;;;3.80;;
17365;SDS011;8800;50.118;9.900;2023-05-07T02:32:05;5.28;;;3.80;;
17365;SDS011;8800;50.118;9.900;2023-05-07T02:34:31;5.68;;;3.85;;
17365;SDS011;8800;50.118;9.900;2023-05-07T02:36:58;5.38;;;3.88;;
17365;SDS011;8800;50.118;9.900;2023-05-07T02:39:24;5.18;;;3.92;;
17365;SDS011;8800;50.118;9.900;2023-05-07T02:41:51;5.22;;;4.30;;
17365;SDS011;8800;50.118;9.900;2023-05-07T02:44:17;6.72;;;4.25;;
17365;SDS011;8800;50.118;9.900;2023-05-07T02:46:44;6.18;;;4.10;;
17365;SDS011;8800;50.118;9.900;2023-05-07T02:49:11;4.53;;;3.80;;
17365;SDS011;8800;50.118;9.900;2023-05-07T02:51:38;5.05;;;4.22;;
17365;SDS011;8800;50.118;9.900;2023-05-07T02:54:04;5.80;;;4.47;;
17365;SDS011;8800;50.118;9.900;2023-05-07T02:56:31;5.72;;;4.80;;
17365;SDS011;8800;50.118;9.900;2023-05-07T02:58:58;7.88;;;4.95;;
17365;SDS011;8800;50.118;9.900;2023-05-07T03:01:24;5.88;;;4.70;;
17365;SDS011;8800;50.118;9.900;2023-05-07T03:03:51;6.95;;;5.00;;
17365;SDS011;8800;50.118;9.900;2023-05-07T03:06:19;9.30;;;5.53;;
17365;SDS011;8800;50.118;9.900;2023-05-07T03:08:45;10.52;;;5.35;;
17365;SDS011;8800;50.118;9.900;2023-05-07T03:11:12;8.35;;;5.35;;
17365;SDS011;8800;50.118;9.900;2023-05-07T03:13:38;6.68;;;4.50;;
17365;SDS011;8800;50.118;9.900;2023-05-07T03:16:05;9.07;;;5.53;;
17365;SDS011;8800;50.118;9.900;2023-05-07T03:18:32;7.70;;;5.30;;
17365;SDS011;8800;50.118;9.900;2023-05-07T03:20:58;6.30;;;5.55;;
17365;SDS011;8800;50.118;9.900;2023-05-07T03:23:26;7.65;;;5.45;;
17365;SDS011;8800;50.118;9.900;2023-05-07T03:25:52;9.32;;;5.95;;
17365;SDS011;8800;50.118;9.900;2023-05-07T03:28:21;11.02;;;5.80;;
17365;SDS011;8800;50.118;9.900;2023-05-07T03:30:48;7.07;;;5.53;;
17365;SDS011;8800;50.118;9.900;2023-05-07T03:33:14;7.65;;;5.47;;
17365;SDS011;8800;50.118;9.900;2023-05-07T03:35:40;9.43;;;5.95;;
17365;SDS011;8800;50.118;9.900;2023-05-07T03:38:07;7.47;;;5.85;;
17365;SDS011;8800;50.118;9.900;2023-05-07T03:40:35;8.68;;;6.22;;
17365;SDS011;8800;50.118;9.900;2023-05-07T03:43:01;7.25;;;5.75;;
17365;SDS011;8800;50.118;9.900;2023-05-07T03:45:28;8.07;;;5.97;;
17365;SDS011;8800;50.118;9.900;2023-05-07T03:47:54;8.60;;;6.18;;
17365;SDS011;8800;50.118;9.900;2023-05-07T03:50:21;8.00;;;5.82;;
17365;SDS011;8800;50.118;9.900;2023-05-07T03:52:47;10.80;;;6.28;;
17365;SDS011;8800;50.118;9.900;2023-05-07T03:55:14;9.68;;;6.93;;
17365;SDS011;8800;50.118;9.900;2023-05-07T03:57:41;10.20;;;7.00;;
17365;SDS011;8800;50.118;9.900;2023-05-07T04:00:08;10.38;;;6.43;;
17365;SDS011;8800;50.118;9.900;2023-05-07T04:02:35;9.65;;;6.22;;
17365;SDS011;8800;50.118;9.900;2023-05-07T04:05:01;8.23;;;6.72;;
17365;SDS011;8800;50.118;9.900;2023-05-07T04:07:28;10.77;;;6.97;;
17365;SDS011;8800;50.118;9.900;2023-05-07T04:09:54;10.82;;;6.78;;
17365;SDS011;8800;50.118;9.900;2023-05-07T04:12:21;9.30;;;7.18;;
17365;SDS011;8800;50.118;9.900;2023-05-07T04:14:48;10.07;;;7.13;;
17365;SDS011;8800;50.118;9.900;2023-05-07T04:17:15;9.65;;;7.13;;
17365;SDS011;8800;50.118;9.900;2023-05-07T04:19:41;10.15;;;7.53;;
17365;SDS011;8800;50.118;9.900;2023-05-07T04:22:10;9.73;;;7.50;;
17365;SDS011;8800;50.118;9.900;2023-05-07T04:24:36;10.60;;;7.35;;
17365;SDS011;8800;50.118;9.900;2023-05-07T04:27:03;11.82;;;7.45;;
17365;SDS011;8800;50.118;9.900;2023-05-07T04:29:29;11.05;;;8.25;;
17365;SDS011;8800;50.118;9.900;2023-05-07T04:31:57;15.00;;;8.60;;
17365;SDS011;8800;50.118;9.900;2023-05-07T04:34:24;12.13;;;8.27;;
17365;SDS011;8800;50.118;9.900;2023-05-07T04:36:50;11.57;;;7.82;;
17365;SDS011;8800;50.118;9.900;2023-05-07T04:39:17;11.52;;;8.50;;
17365;SDS011;8800;50.118;9.900;2023-05-07T04:41:43;13.40;;;8.32;;
17365;SDS011;8800;50.118;9.900;2023-05-07T04:44:10;12.60;;;9.10;;
17365;SDS011;8800;50.118;9.900;2023-05-07T04:46:37;13.60;;;9.07;;
17365;SDS011;8800;50.118;9.900;2023-05-07T04:49:05;15.30;;;9.00;;
17365;SDS011;8800;50.118;9.900;2023-05-07T04:51:31;13.35;;;8.65;;
17365;SDS011;8800;50.118;9.900;2023-05-07T04:53:58;12.40;;;9.48;;
17365;SDS011;8800;50.118;9.900;2023-05-07T04:56:27;13.35;;;8.98;;
17365;SDS011;8800;50.118;9.900;2023-05-07T04:58:53;14.27;;;9.55;;
17365;SDS011;8800;50.118;9.900;2023-05-07T05:01:22;12.57;;;9.55;;
17365;SDS011;8800;50.118;9.900;2023-05-07T05:03:49;12.98;;;9.55;;
17365;SDS011;8800;50.118;9.900;2023-05-07T05:06:16;13.27;;;9.15;;
17365;SDS011;8800;50.118;9.900;2023-05-07T05:08:43;14.38;;;10.10;;
17365;SDS011;8800;50.118;9.900;2023-05-07T05:11:09;11.07;;;8.73;;
17365;SDS011;8800;50.118;9.900;2023-05-07T05:13:36;13.45;;;9.32;;
17365;SDS011;8800;50.118;9.900;2023-05-07T05:16:03;15.38;;;9.65;;
17365;SDS011;8800;50.118;9.900;2023-05-07T05:18:29;13.23;;;9.75;;
17365;SDS011;8800;50.118;9.900;2023-05-07T05:20:56;14.98;;;10.18;;
17365;SDS011;8800;50.118;9.900;2023-05-07T05:23:24;15.52;;;10.27;;
17365;SDS011;8800;50.118;9.900;2023-05-07T05:25:50;15.40;;;10.23;;
17365;SDS011;8800;50.118;9.900;2023-05-07T05:28:21;16.40;;;10.35;;
17365;SDS011;8800;50.118;9.900;2023-05-07T05:30:47;14.80;;;9.60;;
17365;SDS011;8800;50.118;9.900;2023-05-07T05:33:14;14.07;;;9.95;;
17365;SDS011;8800;50.118;9.900;2023-05-07T05:35:40;14.95;;;10.50;;
17365;SDS011;8800;50.118;9.900;2023-05-07T05:38:07;15.25;;;9.88;;
17365;SDS011;8800;50.118;9.900;2023-05-07T05:40:35;15.38;;;10.05;;
17365;SDS011;8800;50.118;9.900;2023-05-07T05:43:01;14.85;;;9.77;;
17365;SDS011;8800;50.118;9.900;2023-05-07T05:45:27;14.70;;;10.00;;
17365;SDS011;8800;50.118;9.900;2023-05-07T05:47:55;15.02;;;9.82;;
17365;SDS011;8800;50.118;9.900;2023-05-07T05:50:22;14.18;;;9.95;;
17365;SDS011;8800;50.118;9.900;2023-05-07T05:52:48;12.88;;;9.38;;
17365;SDS011;8800;50.118;9.900;2023-05-07T05:55:16;13.25;;;9.95;;
17365;SDS011;8800;50.118;9.900;2023-05-07T05:57:44;15.70;;;9.98;;
17365;SDS011;8800;50.118;9.900;2023-05-07T06:00:12;14.80;;;10.77;;
17365;SDS011;8800;50.118;9.900;2023-05-07T06:02:38;13.95;;;9.55;;
17365;SDS011;8800;50.118;9.900;2023-05-07T06:05:06;14.23;;;10.13;;
17365;SDS011;8800;50.118;9.900;2023-05-07T06:07:32;14.70;;;9.80;;
17365;SDS011;8800;50.118;9.900;2023-05-07T06:09:59;13.13;;;8.95;;
17365;SDS011;8800;50.118;9.900;2023-05-07T06:12:26;13.80;;;8.95;;
17365;SDS011;8800;50.118;9.900;2023-05-07T06:14:54;13.90;;;9.45;;
17365;SDS011;8800;50.118;9.900;2023-05-07T06:17:21;13.10;;;8.50;;
17365;SDS011;8800;50.118;9.900;2023-05-07T06:19:47;13.10;;;9.00;;
17365;SDS011;8800;50.118;9.900;2023-05-07T06:22:13;11.93;;;8.77;;
17365;SDS011;8800;50.118;9.900;2023-05-07T06:24:40;13.27;;;9.00;;
17365;SDS011;8800;50.118;9.900;2023-05-07T06:27:06;12.88;;;8.95;;
17365;SDS011;8800;50.118;9.900;2023-05-07T06:29:33;12.05;;;8.52;;
17365;SDS011;8800;50.118;9.900;2023-05-07T06:32:07;14.35;;;8.13;;
17365;SDS011;8800;50.118;9.900;2023-05-07T06:34:34;15.98;;;8.80;;
17365;SDS011;8800;50.118;9.900;2023-05-07T06:37:00;14.10;;;8.50;;
17365;SDS011;8800;50.118;9.900;2023-05-07T06:39:27;14.40;;;8.52;;
17365;SDS011;8800;50.118;9.900;2023-05-07T06:41:53;14.45;;;8.80;;
17365;SDS011;8800;50.118;9.900;2023-05-07T06:44:20;13.93;;;8.30;;
17365;SDS011;8800;50.118;9.900;2023-05-07T06:46:47;12.13;;;8.38;;
17365;SDS011;8800;50.118;9.900;2023-05-07T06:49:15;15.15;;;8.65;;
17365;SDS011;8800;50.118;9.900;2023-05-07T06:51:41;15.77;;;8.48;;
17365;SDS011;8800;50.118;9.900;2023-05-07T06:54:08;11.65;;;8.23;;
17365;SDS011;8800;50.118;9.900;2023-05-07T06:56:34;12.13;;;8.68;;
17365;SDS011;8800;50.118;9.900;2023-05-07T06:59:01;12.63;;;8.07;;
17365;SDS011;8800;50.118;9.900;2023-05-07T07:01:28;12.18;;;8.15;;
17365;SDS011;8800;50.118;9.900;2023-05-07T07:03:55;11.60;;;8.02;;
17365;SDS011;8800;50.118;9.900;2023-05-07T07:06:23;12.93;;;8.60;;
17365;SDS011;8800;50.118;9.900;2023-05-07T07:08:49;12.73;;;8.50;;
17365;SDS011;8800;50.118;9.900;2023-05-07T07:11:16;10.98;;;8.02;;
17365;SDS011;8800;50.118;9.900;2023-05-07T07:13:42;11.13;;;7.90;;
17365;SDS011;8800;50.118;9.900;2023-05-07T07:16:09;12.85;;;7.85;;
17365;SDS011;8800;50.118;9.900;2023-05-07T07:18:35;11.05;;;8.18;;
17365;SDS011;8800;50.118;9.900;2023-05-07T07:21:02;12.35;;;7.78;;
17365;SDS011;8800;50.118;9.900;2023-05-07T07:23:30;10.98;;;7.75;;
17365;SDS011;8800;50.118;9.900;2023-05-07T07:25:58;10.88;;;7.85;;
17365;SDS011;8800;50.118;9.900;2023-05-07T07:28:24;10.95;;;7.65;;
17365;SDS011;8800;50.118;9.900;2023-05-07T07:30:50;10.90;;;7.55;;
17365;SDS011;8800;50.118;9.900;2023-05-07T07:33:17;11.43;;;8.20;;
17365;SDS011;8800;50.118;9.900;2023-05-07T07:35:43;10.68;;;7.90;;
17365;SDS011;8800;50.118;9.900;2023-05-07T07:38:10;12.13;;;8.02;;
17365;SDS011;8800;50.118;9.900;2023-05-07T07:40:38;10.18;;;7.20;;
17365;SDS011;8800;50.118;9.900;2023-05-07T07:43:05;10.30;;;7.72;;
17365;SDS011;8800;50.118;9.900;2023-05-07T07:45:31;10.80;;;7.78;;
17365;SDS011;8800;50.118;9.900;2023-05-07T07:47:58;10.70;;;7.45;;
17365;SDS011;8800;50.118;9.900;2023-05-07T07:50:24;11.55;;;7.57;;
17365;SDS011;8800;50.118;9.900;2023-05-07T07:52:51;11.02;;;7.20;;
17365;SDS011;8800;50.118;9.900;2023-05-07T07:55:19;11.63;;;7.80;;
17365;SDS011;8800;50.118;9.900;2023-05-07T07:57:49;12.73;;;7.43;;
17365;SDS011;8800;50.118;9.900;2023-05-07T08:00:16;9.77;;;7.40;;
17365;SDS011;8800;50.118;9.900;2023-05-07T08:02:42;10.25;;;7.47;;
17365;SDS011;8800;50.118;9.900;2023-05-07T08:05:09;8.40;;;6.65;;
17365;SDS011;8800;50.118;9.900;2023-05-07T08:07:35;10.60;;;6.85;;
17365;SDS011;8800;50.118;9.900;2023-05-07T08:10:02;11.85;;;7.72;;
17365;SDS011;8800;50.118;9.900;2023-05-07T08:12:29;11.25;;;7.60;;
17365;SDS011;8800;50.118;9.900;2023-05-07T08:14:57;10.93;;;6.95;;
17365;SDS011;8800;50.118;9.900;2023-05-07T08:17:23;10.90;;;7.30;;
17365;SDS011;8800;50.118;9.900;2023-05-07T08:19:50;11.00;;;7.07;;
17365;SDS011;8800;50.118;9.900;2023-05-07T08:22:16;10.52;;;7.53;;
17365;SDS011;8800;50.118;9.900;2023-05-07T08:24:43;11.25;;;7.78;;
17365;SDS011;8800;50.118;9.900;2023-05-07T08:27:11;10.70;;;6.88;;
17365;SDS011;8800;50.118;9.900;2023-05-07T08:29:38;10.13;;;6.63;;
17365;SDS011;8800;50.118;9.900;2023-05-07T08:32:05;9.98;;;6.57;;
17365;SDS011;8800;50.118;9.900;2023-05-07T08:34:32;10.70;;;7.22;;
17365;SDS011;8800;50.118;9.900;2023-05-07T08:36:58;12.60;;;7.43;;
17365;SDS011;8800;50.118;9.900;2023-05-07T08:39:25;9.65;;;6.85;;
17365;SDS011;8800;50.118;9.900;2023-05-07T08:41:51;9.75;;;7.00;;
17365;SDS011;8800;50.118;9.900;2023-05-07T08:44:24;12.32;;;7.07;;
17365;SDS011;8800;50.118;9.900;2023-05-07T08:46:52;10.30;;;7.28;;
17365;SDS011;8800;50.118;9.900;2023-05-07T08:49:21;9.60;;;7.05;;
17365;SDS011;8800;50.118;9.900;2023-05-07T08:51:48;9.57;;;7.00;;
17365;SDS011;8800;50.118;9.900;2023-05-07T08:54:15;10.90;;;6.93;;
17365;SDS011;8800;50.118;9.900;2023-05-07T08:56:42;9.95;;;7.47;;
17365;SDS011;8800;50.118;9.900;2023-05-07T08:59:09;10.93;;;6.53;;
17365;SDS011;8800;50.118;9.900;2023-05-07T09:01:36;11.93;;;6.88;;
17365;SDS011;8800;50.118;9.900;2023-05-07T09:04:03;9.70;;;7.18;;
17365;SDS011;8800;50.118;9.900;2023-05-07T09:06:32;8.32;;;6.78;;
17365;SDS011;8800;50.118;9.900;2023-05-07T09:08:58;10.50;;;6.82;;
17365;SDS011;8800;50.118;9.900;2023-05-07T09:11:26;8.43;;;6.10;;
17365;SDS011;8800;50.118;9.900;2023-05-07T09:13:53;10.93;;;6.47;;
17365;SDS011;8800;50.118;9.900;2023-05-07T09:16:20;9.07;;;6.82;;
17365;SDS011;8800;50.118;9.900;2023-05-07T09:18:48;8.75;;;6.53;;
17365;SDS011;8800;50.118;9.900;2023-05-07T09:21:17;8.85;;;5.93;;
17365;SDS011;8800;50.118;9.900;2023-05-07T09:23:45;8.57;;;6.60;;
17365;SDS011;8800;50.118;9.900;2023-05-07T09:26:11;8.68;;;6.43;;
17365;SDS011;8800;50.118;9.900;2023-05-07T09:28:38;9.80;;;6.03;;
17365;SDS011;8800;50.118;9.900;2023-05-07T09:31:05;9.32;;;6.60;;
17365;SDS011;8800;50.118;9.900;2023-05-07T09:33:32;8.98;;;6.53;;
17365;SDS011;8800;50.118;9.900;2023-05-07T09:35:58;9.02;;;6.53;;
17365;SDS011;8800;50.118;9.900;2023-05-07T09:38:28;8.00;;;6.13;;
17365;SDS011;8800;50.118;9.900;2023-05-07T09:41:02;11.93;;;6.20;;
17365;SDS011;8800;50.118;9.900;2023-05-07T09:43:31;9.95;;;6.50;;
17365;SDS011;8800;50.118;9.900;2023-05-07T09:45:58;8.40;;;6.13;;
17365;SDS011;8800;50.118;9.900;2023-05-07T09:48:25;8.07;;;5.50;;
17365;SDS011;8800;50.118;9.900;2023-05-07T09:50:51;9.50;;;5.95;;
17365;SDS011;8800;50.118;9.900;2023-05-07T09:53:21;9.57;;;6.25;;
17365;SDS011;8800;50.118;9.900;2023-05-07T09:55:48;9.55;;;6.35;;
17365;SDS011;8800;50.118;9.900;2023-05-07T09:58:16;7.65;;;5.90;;
17365;SDS011;8800;50.118;9.900;2023-05-07T10:00:43;11.60;;;6.10;;
17365;SDS011;8800;50.118;9.900;2023-05-07T10:03:10;7.85;;;6.00;;
17365;SDS011;8800;50.118;9.900;2023-05-07T10:05:37;9.85;;;6.65;;
17365;SDS011;8800;50.118;9.900;2023-05-07T10:08:04;10.75;;;6.70;;
17365;SDS011;8800;50.118;9.900;2023-05-07T10:10:32;9.50;;;5.93;;
17365;SDS011;8800;50.118;9.900;2023-05-07T10:12:59;8.18;;;5.82;;
17365;SDS011;8800;50.118;9.900;2023-05-07T10:15:27;8.18;;;5.88;;
17365;SDS011;8800;50.118;9.900;2023-05-07T10:17:55;8.32;;;5.90;;
17365;SDS011;8800;50.118;9.900;2023-05-07T10:20:22;8.50;;;5.80;;
17365;SDS011;8800;50.118;9.900;2023-05-07T10:22:48;7.18;;;5.55;;
17365;SDS011;8800;50.118;9.900;2023-05-07T10:25:16;9.00;;;6.03;;
17365;SDS011;8800;50.118;9.900;2023-05-07T10:27:44;9.68;;;5.78;;
17365;SDS011;8800;50.118;9.900;2023-05-07T10:30:14;8.13;;;5.25;;
17365;SDS011;8800;50.118;9.900;2023-05-07T10:32:44;7.93;;;5.30;;
17365;SDS011;8800;50.118;9.900;2023-05-07T10:35:13;10.40;;;5.43;;
17365;SDS011;8800;50.118;9.900;2023-05-07T10:37:41;7.40;;;5.85;;
17365;SDS011;8800;50.118;9.900;2023-05-07T10:40:08;7.35;;;5.10;;
17365;SDS011;8800;50.118;9.900;2023-05-07T10:42:35;6.47;;;5.32;;
17365;SDS011;8800;50.118;9.900;2023-05-07T10:45:11;6.85;;;5.32;;
17365;SDS011;8800;50.118;9.900;2023-05-07T10:50:31;9.27;;;5.55;;
17365;SDS011;8800;50.118;9.900;2023-05-07T10:55:43;7.65;;;5.55;;
17365;SDS011;8800;50.118;9.900;2023-05-07T10:58:25;6.47;;;5.35;;
17365;SDS011;8800;50.118;9.900;2023-05-07T11:00:55;6.28;;;5.10;;
17365;SDS011;8800;50.118;9.900;2023-05-07T11:03:22;7.88;;;5.45;;
17365;SDS011;8800;50.118;9.900;2023-05-07T11:05:52;9.23;;;4.65;;
17365;SDS011;8800;50.118;9.900;2023-05-07T11:11:16;7.80;;;5.47;;
17365;SDS011;8800;50.118;9.900;2023-05-07T11:13:43;6.80;;;4.95;;
17365;SDS011;8800;50.118;9.900;2023-05-07T11:16:16;9.00;;;4.72;;
17365;SDS011;8800;50.118;9.900;2023-05-07T11:18:47;5.72;;;4.80;;
17365;SDS011;8800;50.118;9.900;2023-05-07T11:21:17;5.55;;;4.60;;
17365;SDS011;8800;50.118;9.900;2023-05-07T11:23:58;6.57;;;4.63;;
17365;SDS011;8800;50.118;9.900;2023-05-07T11:26:24;5.68;;;4.15;;
17365;SDS011;8800;50.118;9.900;2023-05-07T11:28:51;5.50;;;4.25;;
17365;SDS011;8800;50.118;9.900;2023-05-07T11:31:20;6.75;;;4.50;;
17365;SDS011;8800;50.118;9.900;2023-05-07T11:33:47;6.72;;;4.30;;
17365;SDS011;8800;50.118;9.900;2023-05-07T11:36:13;8.27;;;4.63;;
17365;SDS011;8800;50.118;9.900;2023-05-07T11:38:41;7.00;;;4.38;;
17365;SDS011;8800;50.118;9.900;2023-05-07T11:41:08;7.18;;;4.32;;
17365;SDS011;8800;50.118;9.900;2023-05-07T11:43:35;5.93;;;4.38;;
17365;SDS011;8800;50.118;9.900;2023-05-07T11:46:05;6.22;;;4.50;;
17365;SDS011;8800;50.118;9.900;2023-05-07T11:48:32;4.95;;;4.03;;
17365;SDS011;8800;50.118;9.900;2023-05-07T11:51:00;5.30;;;3.80;;
17365;SDS011;8800;50.118;9.900;2023-05-07T11:53:27;5.50;;;4.15;;
17365;SDS011;8800;50.118;9.900;2023-05-07T11:55:56;4.78;;;3.97;;
17365;SDS011;8800;50.118;9.900;2023-05-07T11:58:23;5.47;;;4.50;;
17365;SDS011;8800;50.118;9.900;2023-05-07T12:00:50;6.45;;;3.83;;
17365;SDS011;8800;50.118;9.900;2023-05-07T12:03:17;4.95;;;4.18;;
17365;SDS011;8800;50.118;9.900;2023-05-07T12:05:44;5.25;;;3.38;;
17365;SDS011;8800;50.118;9.900;2023-05-07T12:08:13;4.72;;;3.83;;
17365;SDS011;8800;50.118;9.900;2023-05-07T12:10:40;4.80;;;2.65;;
17365;SDS011;8800;50.118;9.900;2023-05-07T12:13:15;3.15;;;2.20;;
17365;SDS011;8800;50.118;9.900;2023-05-07T12:15:42;2.53;;;2.05;;
17365;SDS011;8800;50.118;9.900;2023-05-07T12:18:08;3.13;;;2.33;;
17365;SDS011;8800;50.118;9.900;2023-05-07T12:20:35;4.82;;;2.35;;
17365;SDS011;8800;50.118;9.900;2023-05-07T12:23:02;4.93;;;3.00;;
17365;SDS011;8800;50.118;9.900;2023-05-07T12:25:29;3.17;;;2.20;;
17365;SDS011;8800;50.118;9.900;2023-05-07T12:27:56;2.72;;;2.05;;
17365;SDS011;8800;50.118;9.900;2023-05-07T12:30:25;2.90;;;2.20;;
17365;SDS011;8800;50.118;9.900;2023-05-07T12:32:52;3.70;;;2.20;;
17365;SDS011;8800;50.118;9.900;2023-05-07T12:35:25;3.10;;;1.50;;
17365;SDS011;8800;50.118;9.900;2023-05-07T12:37:54;3.65;;;1.58;;
17365;SDS011;8800;50.118;9.900;2023-05-07T12:40:21;2.17;;;1.50;;
17365;SDS011;8800;50.118;9.900;2023-05-07T12:42:47;1.50;;;1.38;;
17365;SDS011;8800;50.118;9.900;2023-05-07T12:45:19;2.03;;;1.70;;
17365;SDS011;8800;50.118;9.900;2023-05-07T12:47:47;2.55;;;1.80;;
17365;SDS011;8800;50.118;9.900;2023-05-07T12:50:13;2.35;;;1.80;;
17365;SDS011;8800;50.118;9.900;2023-05-07T12:52:40;2.78;;;2.00;;
17365;SDS011;8800;50.118;9.900;2023-05-07T12:55:07;2.45;;;1.80;;
17365;SDS011;8800;50.118;9.900;2023-05-07T12:57:38;1.88;;;1.67;;
17365;SDS011;8800;50.118;9.900;2023-05-07T13:00:05;1.95;;;1.70;;
17365;SDS011;8800;50.118;9.900;2023-05-07T13:02:32;2.70;;;2.25;;
17365;SDS011;8800;50.118;9.900;2023-05-07T13:05:00;2.55;;;2.10;;
17365;SDS011;8800;50.118;9.900;2023-05-07T13:07:27;3.45;;;2.22;;
17365;SDS011;8800;50.118;9.900;2023-05-07T13:09:54;2.83;;;2.22;;
17365;SDS011;8800;50.118;9.900;2023-05-07T13:12:20;2.97;;;2.40;;
17365;SDS011;8800;50.118;9.900;2023-05-07T13:14:47;4.60;;;2.40;;
17365;SDS011;8800;50.118;9.900;2023-05-07T13:17:13;3.50;;;2.25;;
17365;SDS011;8800;50.118;9.900;2023-05-07T13:19:40;3.72;;;2.00;;
17365;SDS011;8800;50.118;9.900;2023-05-07T13:22:08;3.05;;;2.03;;
17365;SDS011;8800;50.118;9.900;2023-05-07T13:24:34;3.53;;;2.15;;
17365;SDS011;8800;50.118;9.900;2023-05-07T13:27:01;3.60;;;2.20;;
17365;SDS011;8800;50.118;9.900;2023-05-07T13:29:27;4.00;;;2.03;;
17365;SDS011;8800;50.118;9.900;2023-05-07T13:31:56;2.88;;;1.92;;
17365;SDS011;8800;50.118;9.900;2023-05-07T13:34:22;3.40;;;2.15;;
17365;SDS011;8800;50.118;9.900;2023-05-07T13:36:49;4.18;;;1.90;;
17365;SDS011;8800;50.118;9.900;2023-05-07T13:39:17;3.28;;;2.42;;
17365;SDS011;8800;50.118;9.900;2023-05-07T13:41:43;4.22;;;2.17;;
17365;SDS011;8800;50.118;9.900;2023-05-07T13:44:10;2.75;;;2.25;;
17365;SDS011;8800;50.118;9.900;2023-05-07T13:46:37;3.28;;;2.17;;
17365;SDS011;8800;50.118;9.900;2023-05-07T13:49:03;3.15;;;2.35;;
17365;SDS011;8800;50.118;9.900;2023-05-07T13:51:29;3.28;;;2.28;;
17365;SDS011;8800;50.118;9.900;2023-05-07T13:53:56;3.03;;;2.22;;
17365;SDS011;8800;50.118;9.900;2023-05-07T13:56:24;4.32;;;2.50;;
17365;SDS011;8800;50.118;9.900;2023-05-07T13:58:53;5.05;;;2.25;;
17365;SDS011;8800;50.118;9.900;2023-05-07T14:01:19;2.88;;;2.22;;
17365;SDS011;8800;50.118;9.900;2023-05-07T14:03:46;3.83;;;2.42;;
17365;SDS011;8800;50.118;9.900;2023-05-07T14:06:13;3.83;;;2.50;;
17365;SDS011;8800;50.118;9.900;2023-05-07T14:08:39;3.13;;;2.53;;
17365;SDS011;8800;50.118;9.900;2023-05-07T14:11:06;3.10;;;2.30;;
17365;SDS011;8800;50.118;9.900;2023-05-07T14:13:34;2.58;;;2.08;;
17365;SDS011;8800;50.118;9.900;2023-05-07T14:16:00;4.82;;;2.08;;
17365;SDS011;8800;50.118;9.900;2023-05-07T14:18:27;3.33;;;2.20;;
17365;SDS011;8800;50.118;9.900;2023-05-07T14:20:54;3.25;;;2.22;;
17365;SDS011;8800;50.118;9.900;2023-05-07T14:23:21;4.07;;;2.28;;
17365;SDS011;8800;50.118;9.900;2023-05-07T14:25:51;4.70;;;2.30;;
17365;SDS011;8800;50.118;9.900;2023-05-07T14:28:18;2.60;;;2.00;;
17365;SDS011;8800;50.118;9.900;2023-05-07T14:30:46;2.97;;;2.67;;
17365;SDS011;8800;50.118;9.900;2023-05-07T14:33:13;2.88;;;2.20;;
17365;SDS011;8800;50.118;9.900;2023-05-07T14:35:39;2.47;;;2.28;;
17365;SDS011;8800;50.118;9.900;2023-05-07T14:38:06;2.10;;;1.90;;
17365;SDS011;8800;50.118;9.900;2023-05-07T14:40:33;2.80;;;1.90;;
17365;SDS011;8800;50.118;9.900;2023-05-07T14:42:59;3.20;;;1.95;;
17365;SDS011;8800;50.118;9.900;2023-05-07T14:45:26;2.08;;;1.70;;
17365;SDS011;8800;50.118;9.900;2023-05-07T14:47:54;2.22;;;2.03;;
17365;SDS011;8800;50.118;9.900;2023-05-07T14:50:20;2.80;;;2.08;;
17365;SDS011;8800;50.118;9.900;2023-05-07T14:52:47;2.58;;;1.90;;
17365;SDS011;8800;50.118;9.900;2023-05-07T14:55:14;2.63;;;1.98;;
17365;SDS011;8800;50.118;9.900;2023-05-07T14:57:40;2.13;;;1.92;;
17365;SDS011;8800;50.118;9.900;2023-05-07T15:00:07;2.75;;;1.95;;
17365;SDS011;8800;50.118;9.900;2023-05-07T15:02:34;2.65;;;1.98;;